Time;durP1;ratioP1;P1;durP2;ratioP2;P2;SDS_P1;SDS_P2;PMS_P1;PMS_P2;Temp;Humidity;BMP_temperature;BMP_pressure;BME280_temperature;BME280_humidity;BME280_pressure;Samples;Min_cycle;Max_cycle;Signal;HPM_P1;HPM_P2
2021/10/30 00:00:28;;;;;;;2.28;1.95;;;;;18.70;100395.00;;;;5076580;28;20679;-80
2021/10/30 00:02:55;;;;;;;2.70;2.33;;;;;18.70;100391.00;;;;5068398;28;20210;-79
2021/10/30 00:05:23;;;;;;;3.22;2.10;;;;;18.70;100391.00;;;;5074554;28;20213;-80
2021/10/30 00:07:50;;;;;;;2.60;1.58;;;;;18.60;100394.00;;;;5087374;28;20221;-79
2021/10/30 00:10:17;;;;;;;2.58;2.22;;;;;18.60;100385.00;;;;5088345;28;20685;-79
2021/10/30 00:12:46;;;;;;;2.33;1.98;;;;;18.50;100379.00;;;;5088572;28;20194;-80
2021/10/30 00:15:14;;;;;;;2.63;1.92;;;;;18.50;100384.00;;;;5072670;28;20223;-80
2021/10/30 00:17:41;;;;;;;3.13;2.25;;;;;18.50;100387.00;;;;5069536;28;20209;-80
2021/10/30 00:20:09;;;;;;;2.60;2.05;;;;;18.40;100385.00;;;;5078844;28;20198;-80
2021/10/30 00:22:37;;;;;;;2.20;2.00;;;;;18.40;100389.00;;;;5087786;28;20186;-79
2021/10/30 00:25:04;;;;;;;2.28;1.92;;;;;18.40;100389.00;;;;5086504;28;20217;-80
2021/10/30 00:27:32;;;;;;;3.15;1.80;;;;;18.40;100395.00;;;;5067903;28;20226;-80
2021/10/30 00:30:00;;;;;;;2.38;1.80;;;;;18.40;100391.00;;;;5071015;28;20199;-80
2021/10/30 00:32:28;;;;;;;1.67;1.52;;;;;18.30;100391.00;;;;5068866;28;20565;-79
2021/10/30 00:34:55;;;;;;;1.98;1.60;;;;;18.30;100395.00;;;;5070031;28;20691;-80
2021/10/30 00:37:22;;;;;;;2.13;1.60;;;;;18.30;100389.00;;;;5069019;28;20199;-79
2021/10/30 00:39:49;;;;;;;3.50;1.60;;;;;18.30;100391.00;;;;5068147;28;20191;-80
2021/10/30 00:42:17;;;;;;;2.40;2.17;;;;;18.30;100390.00;;;;5086199;28;20294;-80
2021/10/30 00:44:44;;;;;;;2.50;1.98;;;;;18.30;100395.00;;;;5086909;28;20198;-80
2021/10/30 00:47:13;;;;;;;2.60;1.77;;;;;18.20;100400.00;;;;5067854;28;20215;-80
2021/10/30 00:49:43;;;;;;;3.15;2.00;;;;;18.20;100394.00;;;;5068798;28;20680;-80
2021/10/30 00:52:13;;;;;;;2.80;2.10;;;;;18.20;100393.00;;;;5070083;28;20287;-79
2021/10/30 00:54:42;;;;;;;2.38;2.00;;;;;18.20;100384.00;;;;5068304;28;20206;-80
2021/10/30 00:57:12;;;;;;;2.47;2.25;;;;;18.30;100385.00;;;;5067786;28;20198;-79
2021/10/30 00:59:39;;;;;;;2.42;2.22;;;;;18.30;100377.00;;;;5084108;28;20244;-80
2021/10/30 01:02:07;;;;;;;2.70;2.05;;;;;18.30;100379.00;;;;5087153;28;20205;-80
2021/10/30 01:04:36;;;;;;;2.63;2.20;;;;;18.30;100375.00;;;;5086365;28;20197;-80
2021/10/30 01:07:05;;;;;;;2.30;1.92;;;;;18.40;100378.00;;;;5068630;28;20226;-80
2021/10/30 01:09:32;;;;;;;2.35;1.83;;;;;18.40;100371.00;;;;5071501;28;20583;-80
2021/10/30 01:12:00;;;;;;;3.47;2.08;;;;;18.40;100370.00;;;;5087768;28;20571;-80
2021/10/30 01:14:29;;;;;;;2.28;1.90;;;;;18.40;100369.00;;;;5088797;28;20190;-79
2021/10/30 01:17:00;;;;;;;2.70;1.95;;;;;18.40;100368.00;;;;5068735;28;20202;-79
2021/10/30 01:19:29;;;;;;;2.55;1.90;;;;;18.50;100358.00;;;;5068686;28;20206;-80
2021/10/30 01:21:58;;;;;;;3.33;2.40;;;;;18.50;100356.00;;;;5068069;28;20211;-79
2021/10/30 01:24:25;;;;;;;3.28;1.77;;;;;18.50;100346.00;;;;5072013;28;20198;-80
2021/10/30 01:26:53;;;;;;;2.05;1.63;;;;;18.50;100349.00;;;;5078243;28;20235;-80
2021/10/30 01:29:21;;;;;;;3.63;2.03;;;;;18.50;100344.00;;;;5071608;28;20223;-80
2021/10/30 01:31:49;;;;;;;2.95;2.35;;;;;18.50;100343.00;;;;5071706;28;20202;-80
2021/10/30 01:34:17;;;;;;;1.67;1.50;;;;;18.50;100344.00;;;;5073067;28;20234;-80
2021/10/30 01:36:45;;;;;;;2.00;1.80;;;;;18.50;100343.00;;;;5081777;28;20668;-80
2021/10/30 01:39:14;;;;;;;2.20;1.92;;;;;18.50;100326.00;;;;5071336;28;20198;-79
2021/10/30 01:41:42;;;;;;;1.67;1.52;;;;;18.50;100322.00;;;;5071948;28;20672;-80
2021/10/30 01:44:09;;;;;;;2.35;1.70;;;;;18.50;100321.00;;;;5085413;28;20618;-80
2021/10/30 01:46:36;;;;;;;1.98;1.70;;;;;18.50;100330.00;;;;5090040;28;20347;-80
2021/10/30 01:49:04;;;;;;;2.47;1.77;;;;;18.50;100319.00;;;;5090987;28;20186;-80
2021/10/30 01:51:31;;;;;;;2.08;1.73;;;;;18.50;100319.00;;;;5084647;28;20192;-80
2021/10/30 01:54:00;;;;;;;2.22;1.83;;;;;18.40;100309.00;;;;5069706;28;20569;-79
2021/10/30 01:56:29;;;;;;;2.03;1.85;;;;;18.40;100308.00;;;;5070773;28;20191;-80
2021/10/30 01:58:56;;;;;;;2.30;2.08;;;;;18.40;100305.00;;;;5070329;28;20205;-80
2021/10/30 02:01:24;;;;;;;2.45;1.65;;;;;18.40;100308.00;;;;5091608;28;20205;-79
2021/10/30 02:03:51;;;;;;;2.25;2.00;;;;;18.30;100306.00;;;;5090169;28;20670;-80
2021/10/30 02:06:18;;;;;;;2.55;2.03;;;;;18.30;100301.00;;;;5069457;28;20222;-79
2021/10/30 02:08:46;;;;;;;2.30;2.10;;;;;18.30;100291.00;;;;5070054;28;20229;-80
2021/10/30 02:11:13;;;;;;;3.80;1.88;;;;;18.30;100287.00;;;;5070219;28;20195;-80
2021/10/30 02:13:42;;;;;;;3.00;2.10;;;;;18.20;100283.00;;;;5070186;28;20567;-80
2021/10/30 02:16:10;;;;;;;2.80;2.10;;;;;18.20;100283.00;;;;5076576;28;20194;-79
2021/10/30 02:18:37;;;;;;;2.58;2.00;;;;;18.20;100289.00;;;;5090283;28;20841;-80
2021/10/30 02:21:05;;;;;;;3.03;2.40;;;;;18.10;100285.00;;;;5073889;28;20239;-80
2021/10/30 02:23:32;;;;;;;2.40;1.98;;;;;18.10;100276.00;;;;5075354;28;20202;-80
2021/10/30 02:25:59;;;;;;;2.55;2.25;;;;;18.10;100268.00;;;;5069679;28;20222;-79
2021/10/30 02:28:26;;;;;;;2.47;2.28;;;;;18.00;100263.00;;;;5086121;28;20222;-80
2021/10/30 02:30:55;;;;;;;2.35;1.85;;;;;18.00;100263.00;;;;5088332;28;20198;-79
2021/10/30 02:33:22;;;;;;;2.53;2.33;;;;;18.00;100255.00;;;;5086531;28;20575;-80
2021/10/30 02:35:50;;;;;;;3.30;2.67;;;;;18.00;100256.00;;;;5082162;28;20205;-79
2021/10/30 02:38:17;;;;;;;3.65;2.65;;;;;17.90;100253.00;;;;5069454;28;20191;-79
2021/10/30 02:40:44;;;;;;;2.50;2.30;;;;;17.90;100249.00;;;;5069799;28;20198;-79
2021/10/30 02:43:11;;;;;;;3.05;2.70;;;;;17.90;100247.00;;;;5069583;28;20566;-79
2021/10/30 02:45:39;;;;;;;3.05;2.78;;;;;17.90;100243.00;;;;5083956;28;20205;-79
2021/10/30 02:48:07;;;;;;;3.17;2.45;;;;;17.90;100236.00;;;;5084164;28;20218;-80
2021/10/30 02:50:35;;;;;;;5.03;2.83;;;;;17.90;100233.00;;;;5074621;28;20252;-79
2021/10/30 02:53:02;;;;;;;3.22;2.50;;;;;17.90;100226.00;;;;5069653;28;20203;-80
2021/10/30 02:55:29;;;;;;;2.92;2.53;;;;;17.80;100232.00;;;;5082220;28;20195;-79
2021/10/30 02:57:56;;;;;;;3.20;2.67;;;;;17.80;100227.00;;;;5081299;28;20584;-79
2021/10/30 03:00:24;;;;;;;3.28;2.53;;;;;17.80;100214.00;;;;5070322;28;20199;-80
2021/10/30 03:02:51;;;;;;;3.08;2.70;;;;;17.80;100213.00;;;;5069217;28;20195;-79
2021/10/30 03:05:20;;;;;;;4.50;2.92;;;;;17.80;100194.00;;;;5069619;28;20278;-79
2021/10/30 03:07:47;;;;;;;2.80;2.50;;;;;17.80;100197.00;;;;5077638;28;20307;-79
2021/10/30 03:10:15;;;;;;;2.65;2.40;;;;;17.70;100191.00;;;;5089533;28;21072;-79
2021/10/30 03:12:44;;;;;;;2.80;2.58;;;;;17.70;100195.00;;;;5087858;28;20190;-79
2021/10/30 03:15:12;;;;;;;2.58;2.30;;;;;17.70;100194.00;;;;5078784;28;20195;-79
2021/10/30 03:17:39;;;;;;;2.97;2.47;;;;;17.70;100185.00;;;;5069187;28;20273;-79
2021/10/30 03:20:08;;;;;;;2.78;2.17;;;;;17.70;100172.00;;;;5068779;28;20207;-79
2021/10/30 03:22:37;;;;;;;6.53;2.80;;;;;17.70;100156.00;;;;5069018;28;20199;-79
2021/10/30 03:25:05;;;;;;;2.90;2.38;;;;;17.70;100147.00;;;;5077317;28;20679;-79
2021/10/30 03:27:32;;;;;;;5.28;3.20;;;;;17.70;100155.00;;;;5070839;28;20248;-79
2021/10/30 03:29:59;;;;;;;4.00;2.38;;;;;17.70;100163.00;;;;5072161;28;20207;-79
2021/10/30 03:32:27;;;;;;;3.88;3.22;;;;;17.70;100156.00;;;;5068364;28;20661;-79
2021/10/30 03:34:54;;;;;;;2.95;2.60;;;;;17.70;100156.00;;;;5068311;28;20202;-79
2021/10/30 03:37:21;;;;;;;3.97;2.85;;;;;17.70;100158.00;;;;5074914;28;20187;-79
2021/10/30 03:39:50;;;;;;;3.20;2.72;;;;;17.70;100166.00;;;;5082019;28;20194;-79
2021/10/30 03:42:17;;;;;;;3.00;2.63;;;;;17.70;100165.00;;;;5070219;28;20214;-79
2021/10/30 03:44:44;;;;;;;3.90;2.63;;;;;17.70;100169.00;;;;5084186;28;20187;-79
2021/10/30 03:47:11;;;;;;;2.85;2.55;;;;;17.70;100166.00;;;;5069198;28;20727;-79
2021/10/30 03:49:38;;;;;;;3.78;3.38;;;;;17.70;100156.00;;;;5081484;28;20683;-79
2021/10/30 03:52:07;;;;;;;4.90;3.05;;;;;17.70;100147.00;;;;5077096;28;20213;-79
2021/10/30 03:54:34;;;;;;;3.58;2.97;;;;;17.70;100157.00;;;;5071290;28;20219;-78
2021/10/30 03:57:03;;;;;;;3.72;3.22;;;;;17.70;100144.00;;;;5068761;28;21065;-79
2021/10/30 03:59:30;;;;;;;4.35;3.13;;;;;17.70;100146.00;;;;5071931;28;20195;-79
2021/10/30 04:01:57;;;;;;;3.33;2.65;;;;;17.80;100145.00;;;;5067886;28;20664;-79
2021/10/30 04:04:25;;;;;;;3.13;2.78;;;;;17.80;100149.00;;;;5068909;28;20195;-79
2021/10/30 04:06:52;;;;;;;3.47;3.17;;;;;17.80;100146.00;;;;5068251;28;20689;-79
2021/10/30 04:09:21;;;;;;;3.40;3.10;;;;;17.80;100144.00;;;;5070607;28;20293;-80
2021/10/30 04:11:48;;;;;;;3.33;3.03;;;;;17.80;100135.00;;;;5068236;28;20244;-79
2021/10/30 04:14:17;;;;;;;4.07;3.40;;;;;17.80;100135.00;;;;5068282;28;20210;-79
2021/10/30 04:16:45;;;;;;;3.15;2.92;;;;;17.80;100143.00;;;;5083191;28;20206;-79
2021/10/30 04:19:13;;;;;;;3.47;3.08;;;;;17.90;100132.00;;;;5087528;28;20209;-79
2021/10/30 04:21:40;;;;;;;4.25;2.97;;;;;17.90;100121.00;;;;5072465;28;20217;-79
2021/10/30 04:24:08;;;;;;;4.30;2.83;;;;;17.90;100109.00;;;;5068035;28;20210;-79
2021/10/30 04:26:35;;;;;;;3.22;2.95;;;;;17.90;100102.00;;;;5067591;28;20233;-79
2021/10/30 04:29:03;;;;;;;4.20;3.25;;;;;17.90;100102.00;;;;5087552;28;20202;-80
2021/10/30 04:31:32;;;;;;;4.78;3.45;;;;;18.00;100100.00;;;;5081033;28;20199;-79
2021/10/30 04:34:02;;;;;;;3.42;3.00;;;;;18.00;100099.00;;;;5067882;28;20199;-79
2021/10/30 04:36:31;;;;;;;5.53;3.08;;;;;18.00;100089.00;;;;5068754;28;20186;-79
2021/10/30 04:39:00;;;;;;;3.38;3.08;;;;;18.00;100085.00;;;;5067925;28;20199;-80
2021/10/30 04:41:28;;;;;;;3.83;3.42;;;;;18.10;100089.00;;;;5068183;28;20206;-80
2021/10/30 04:43:56;;;;;;;3.65;2.83;;;;;18.10;100083.00;;;;5079961;28;20205;-79
2021/10/30 04:46:24;;;;;;;3.30;2.75;;;;;18.10;100083.00;;;;5068591;28;20277;-80
2021/10/30 04:48:53;;;;;;;3.40;2.95;;;;;18.10;100090.00;;;;5083436;28;20668;-80
2021/10/30 04:51:21;;;;;;;3.35;2.90;;;;;18.10;100085.00;;;;5076182;28;20576;-80
2021/10/30 04:53:48;;;;;;;4.50;3.35;;;;;18.10;100078.00;;;;5068879;28;20198;-79
2021/10/30 04:56:16;;;;;;;3.83;3.10;;;;;18.20;100084.00;;;;5068800;28;20191;-79
2021/10/30 04:58:44;;;;;;;3.00;2.70;;;;;18.20;100078.00;;;;5067920;28;20191;-79
2021/10/30 05:01:12;;;;;;;3.92;3.20;;;;;18.20;100078.00;;;;5079011;28;20305;-80
2021/10/30 05:03:40;;;;;;;4.38;2.70;;;;;18.20;100077.00;;;;5074191;28;20199;-80
2021/10/30 05:06:09;;;;;;;3.35;2.95;;;;;18.20;100069.00;;;;5073508;28;20203;-79
2021/10/30 05:08:36;;;;;;;3.17;2.75;;;;;18.20;100078.00;;;;5071684;28;20227;-79
2021/10/30 05:11:05;;;;;;;3.38;2.95;;;;;18.20;100081.00;;;;5086784;28;20201;-79
2021/10/30 05:13:33;;;;;;;3.60;3.10;;;;;18.30;100077.00;;;;5073076;28;20198;-80
2021/10/30 05:16:00;;;;;;;3.83;2.92;;;;;18.30;100079.00;;;;5079076;28;20663;-81
2021/10/30 05:18:27;;;;;;;4.10;3.13;;;;;18.30;100080.00;;;;5075488;28;20232;-80
2021/10/30 05:20:56;;;;;;;5.63;2.88;;;;;18.30;100081.00;;;;5074798;28;21087;-80
2021/10/30 05:23:24;;;;;;;4.35;3.22;;;;;18.30;100062.00;;;;5080793;28;20191;-80
2021/10/30 05:25:52;;;;;;;3.17;2.70;;;;;18.30;100067.00;;;;5079647;28;20210;-80
2021/10/30 05:28:21;;;;;;;3.42;3.05;;;;;18.40;100061.00;;;;5078694;28;20237;-80
2021/10/30 05:30:49;;;;;;;2.95;2.50;;;;;18.40;100059.00;;;;5090568;28;20229;-78
2021/10/30 05:33:17;;;;;;;3.33;2.90;;;;;18.40;100051.00;;;;5072579;28;20210;-81
2021/10/30 05:35:44;;;;;;;3.38;2.60;;;;;18.40;100040.00;;;;5078719;28;20691;-79
2021/10/30 05:38:12;;;;;;;3.45;3.10;;;;;18.40;100037.00;;;;5082208;28;20668;-80
2021/10/30 05:40:41;;;;;;;3.13;2.83;;;;;18.40;100036.00;;;;5081510;28;20663;-81
2021/10/30 05:43:08;;;;;;;4.22;2.72;;;;;18.40;100035.00;;;;5077744;28;20203;-81
2021/10/30 05:45:36;;;;;;;5.20;3.28;;;;;18.40;100034.00;;;;5082446;28;20207;-80
2021/10/30 05:48:05;;;;;;;3.60;2.88;;;;;18.40;100030.00;;;;5079935;28;20219;-81
2021/10/30 05:50:33;;;;;;;5.45;3.33;;;;;18.40;100024.00;;;;5075975;28;20290;-79
2021/10/30 05:53:00;;;;;;;3.85;3.35;;;;;18.40;100024.00;;;;5075203;28;20213;-80
2021/10/30 05:55:28;;;;;;;4.10;3.08;;;;;18.40;100023.00;;;;5076427;28;20198;-81
2021/10/30 05:57:56;;;;;;;4.88;3.25;;;;;18.40;100016.00;;;;5075618;28;20208;-80
2021/10/30 06:00:24;;;;;;;4.50;3.33;;;;;18.40;100011.00;;;;5073184;28;20924;-81
2021/10/30 06:02:51;;;;;;;4.68;3.05;;;;;18.40;100011.00;;;;5072881;28;20895;-81
2021/10/30 06:05:18;;;;;;;4.85;3.88;;;;;18.40;100002.00;;;;5075961;28;20199;-82
2021/10/30 06:07:46;;;;;;;3.65;3.05;;;;;18.40;100010.00;;;;5084647;28;20359;-81
2021/10/30 06:10:13;;;;;;;4.07;3.30;;;;;18.40;100012.00;;;;5081211;28;20198;-82
2021/10/30 06:12:41;;;;;;;4.55;3.30;;;;;18.40;100011.00;;;;5078851;28;20613;-81
2021/10/30 06:15:10;;;;;;;4.35;3.00;;;;;18.40;100006.00;;;;5077172;28;20202;-81
2021/10/30 06:17:38;;;;;;;4.28;2.92;;;;;18.40;100009.00;;;;5088532;28;20198;-82
2021/10/30 06:20:06;;;;;;;3.33;2.72;;;;;18.40;100004.00;;;;5084684;28;20224;-83
2021/10/30 06:22:34;;;;;;;3.58;3.22;;;;;18.40;99999.00;;;;5076757;28;20195;-82
2021/10/30 06:25:01;;;;;;;3.75;3.05;;;;;18.40;99999.00;;;;5080192;28;20660;-82
2021/10/30 06:27:29;;;;;;;4.38;3.33;;;;;18.40;100002.00;;;;5069822;28;20237;-83
2021/10/30 06:29:56;;;;;;;5.68;3.17;;;;;18.40;100008.00;;;;5075255;28;20206;-83
2021/10/30 06:32:25;;;;;;;3.95;3.25;;;;;18.40;100009.00;;;;5082281;28;20199;-83
2021/10/30 06:34:52;;;;;;;5.30;3.10;;;;;18.30;100008.00;;;;5078527;28;20225;-83
2021/10/30 06:37:19;;;;;;;4.70;3.25;;;;;18.30;100014.00;;;;5078124;28;20194;-83
2021/10/30 06:39:47;;;;;;;5.63;2.95;;;;;18.30;100021.00;;;;5082778;28;20210;-84
2021/10/30 06:42:15;;;;;;;3.60;3.03;;;;;18.30;100021.00;;;;5076296;28;20684;-83
2021/10/30 06:44:44;;;;;;;4.13;3.33;;;;;18.30;100002.00;;;;5079175;28;20569;-84
2021/10/30 06:47:12;;;;;;;3.72;2.97;;;;;18.30;100005.00;;;;5071755;28;20576;-84
2021/10/30 06:49:41;;;;;;;3.70;2.95;;;;;18.30;100007.00;;;;5070897;28;20199;-83
2021/10/30 06:52:10;;;;;;;5.55;3.10;;;;;18.30;100002.00;;;;5069952;28;20572;-84
2021/10/30 06:54:37;;;;;;;4.35;2.92;;;;;18.30;99999.00;;;;5071004;28;20674;-81
2021/10/30 06:57:07;;;;;;;5.40;2.78;;;;;18.20;99990.00;;;;5070202;28;20199;-83
2021/10/30 06:59:36;;;;;;;4.60;3.88;;;;;18.20;99990.00;;;;5069991;28;20202;-83
2021/10/30 07:02:04;;;;;;;3.65;3.33;;;;;18.20;99995.00;;;;5079629;28;20213;-82
2021/10/30 07:04:32;;;;;;;3.80;3.20;;;;;18.20;99997.00;;;;5078346;28;20256;-82
2021/10/30 07:07:01;;;;;;;4.93;3.45;;;;;18.20;99987.00;;;;5067753;28;20202;-82
2021/10/30 07:09:28;;;;;;;4.45;3.40;;;;;18.20;99984.00;;;;5068945;28;20227;-82
2021/10/30 07:11:55;;;;;;;4.63;3.55;;;;;18.20;99986.00;;;;5084061;28;20668;-82
2021/10/30 07:14:23;;;;;;;3.08;2.40;;;;;18.20;99978.00;;;;5078475;28;20203;-82
2021/10/30 07:16:50;;;;;;;4.85;3.50;;;;;18.20;99981.00;;;;5076058;28;20747;-82
2021/10/30 07:19:17;;;;;;;4.15;3.40;;;;;18.10;99972.00;;;;5076254;28;20199;-82
2021/10/30 07:21:45;;;;;;;4.20;3.00;;;;;18.10;99980.00;;;;5074371;28;20240;-81
2021/10/30 07:24:13;;;;;;;4.75;2.97;;;;;18.10;99980.00;;;;5069910;28;20206;-81
2021/10/30 07:26:41;;;;;;;2.75;2.20;;;;;18.10;99975.00;;;;5069021;28;20226;-81
2021/10/30 07:29:08;;;;;;;5.10;3.28;;;;;18.20;99976.00;;;;5069085;28;20222;-81
2021/10/30 07:31:35;;;;;;;4.45;3.15;;;;;18.20;99973.00;;;;5078873;28;20214;-82
2021/10/30 07:34:02;;;;;;;4.35;3.03;;;;;18.20;99980.00;;;;5076367;28;20191;-81
2021/10/30 07:36:30;;;;;;;4.68;3.08;;;;;18.20;99970.00;;;;5073422;28;20198;-81
2021/10/30 07:38:57;;;;;;;3.97;2.90;;;;;18.20;99971.00;;;;5075404;28;20206;-81
2021/10/30 07:41:26;;;;;;;4.53;3.38;;;;;18.20;99973.00;;;;5075435;28;20197;-81
2021/10/30 07:43:54;;;;;;;7.40;2.78;;;;;18.20;99957.00;;;;5075370;28;20198;-81
2021/10/30 07:46:23;;;;;;;5.05;2.92;;;;;18.20;99957.00;;;;5082585;28;20198;-81
2021/10/30 07:48:51;;;;;;;4.03;3.15;;;;;18.20;99950.00;;;;5068156;28;20236;-80
2021/10/30 07:51:18;;;;;;;5.80;3.03;;;;;18.20;99954.00;;;;5068231;28;20222;-80
2021/10/30 07:53:46;;;;;;;5.13;2.90;;;;;18.20;99942.00;;;;5068058;28;20210;-81
2021/10/30 07:56:15;;;;;;;3.45;2.92;;;;;18.20;99944.00;;;;5067603;28;20198;-81
2021/10/30 07:58:44;;;;;;;4.18;3.10;;;;;18.20;99946.00;;;;5068079;28;20256;-79
2021/10/30 08:01:11;;;;;;;2.92;2.47;;;;;18.20;99941.00;;;;5068806;28;20207;-80
2021/10/30 08:03:39;;;;;;;3.85;2.78;;;;;18.20;99935.00;;;;5068022;28;20599;-83
2021/10/30 08:06:06;;;;;;;5.40;3.70;;;;;18.20;99939.00;;;;5067558;28;20226;-80
2021/10/30 08:08:33;;;;;;;4.47;3.10;;;;;18.20;99939.00;;;;5068036;28;20230;-81
2021/10/30 08:11:01;;;;;;;4.25;3.05;;;;;18.20;99938.00;;;;5075083;28;20202;-84
2021/10/30 08:13:29;;;;;;;3.63;3.03;;;;;18.20;99943.00;;;;5073451;28;20210;-82
2021/10/30 08:15:58;;;;;;;5.20;3.22;;;;;18.20;99932.00;;;;5067989;28;20202;-83
2021/10/30 08:18:25;;;;;;;4.03;3.15;;;;;18.30;99932.00;;;;5076249;28;20202;-84
2021/10/30 08:20:52;;;;;;;5.38;2.85;;;;;18.30;99933.00;;;;5067437;28;20206;-82
2021/10/30 08:23:20;;;;;;;3.53;2.42;;;;;18.30;99936.00;;;;5074372;28;20201;-82
2021/10/30 08:25:47;;;;;;;4.15;2.72;;;;;18.30;99935.00;;;;5070763;28;20194;-84
2021/10/30 08:28:14;;;;;;;3.30;2.58;;;;;18.30;99942.00;;;;5068139;28;20233;-82
2021/10/30 08:30:42;;;;;;;2.97;2.53;;;;;18.30;99926.00;;;;5074131;28;20194;-82
2021/10/30 08:33:13;;;;;;;3.30;2.80;;;;;18.30;99931.00;;;;5078705;28;20217;-81
2021/10/30 08:35:40;;;;;;;4.22;2.63;;;;;18.30;99923.00;;;;5072925;28;20274;-81
2021/10/30 08:38:09;;;;;;;4.00;2.75;;;;;18.30;99915.00;;;;5077859;28;20202;-81
2021/10/30 08:40:37;;;;;;;3.88;2.30;;;;;18.30;99919.00;;;;5077744;28;20294;-81
2021/10/30 08:43:05;;;;;;;3.13;2.63;;;;;18.30;99909.00;;;;5078712;28;20579;-82
2021/10/30 08:45:32;;;;;;;3.67;2.47;;;;;18.40;99913.00;;;;5077847;28;20209;-81
2021/10/30 08:48:01;;;;;;;5.97;3.22;;;;;18.40;99904.00;;;;5072581;28;20226;-81
2021/10/30 08:50:30;;;;;;;3.40;2.35;;;;;18.40;99896.00;;;;5076197;28;20198;-80
2021/10/30 08:53:00;;;;;;;3.55;2.85;;;;;18.40;99900.00;;;;5072508;28;20747;-81
2021/10/30 08:55:27;;;;;;;4.35;2.55;;;;;18.40;99898.00;;;;5083524;28;20201;-82
2021/10/30 08:57:54;;;;;;;2.65;2.03;;;;;18.40;99899.00;;;;5088249;28;20567;-80
2021/10/30 09:00:25;;;;;;;4.22;2.78;;;;;18.40;99898.00;;;;5071624;28;20226;-82
2021/10/30 09:02:57;;;;;;;6.18;2.63;;;;;18.40;99898.00;;;;5078929;28;20672;-80
2021/10/30 09:05:25;;;;;;;4.20;2.83;;;;;18.50;99901.00;;;;5080795;28;20329;-82
2021/10/30 09:07:56;;;;;;;4.53;2.10;;;;;18.40;99894.00;;;;5074930;28;20214;-82
2021/10/30 09:10:26;;;;;;;3.40;2.45;;;;;18.40;99893.00;;;;5077755;28;20207;-82
2021/10/30 09:12:56;;;;;;;2.35;1.90;;;;;18.40;99886.00;;;;5074843;28;20568;-82
2021/10/30 09:15:35;;;;;;;4.75;2.33;;;;;18.40;99887.00;;;;5075058;28;20190;-83
2021/10/30 09:18:03;;;;;;;3.13;1.92;;;;;18.40;99890.00;;;;5072940;28;20198;-83
2021/10/30 09:20:35;;;;;;;2.45;2.08;;;;;18.50;99888.00;;;;5075160;28;20190;-80
2021/10/30 09:23:08;;;;;;;3.90;2.20;;;;;18.50;99893.00;;;;5078407;28;20194;-81
2021/10/30 09:25:35;;;;;;;3.97;2.30;;;;;18.50;99890.00;;;;5077653;28;20202;-81
2021/10/30 09:28:03;;;;;;;2.58;2.20;;;;;18.50;99885.00;;;;5072901;28;20226;-80
2021/10/30 09:30:35;;;;;;;2.88;1.98;;;;;18.50;99892.00;;;;5075518;28;20199;-82
2021/10/30 09:33:04;;;;;;;2.78;2.25;;;;;18.50;99883.00;;;;5072679;28;20923;-80
2021/10/30 09:35:34;;;;;;;2.60;2.00;;;;;18.50;99878.00;;;;5073765;28;20191;-82
2021/10/30 09:38:02;;;;;;;4.70;2.28;;;;;18.50;99878.00;;;;5079889;28;20198;-80
2021/10/30 09:40:32;;;;;;;2.65;2.08;;;;;18.50;99889.00;;;;5075288;28;20684;-81
2021/10/30 09:43:11;;;;;;;2.80;2.17;;;;;18.50;99892.00;;;;5080001;28;20194;-80
2021/10/30 09:45:48;;;;;;;3.35;1.90;;;;;18.50;99882.00;;;;5087656;28;20198;-80
2021/10/30 09:48:21;;;;;;;2.92;1.80;;;;;18.60;99882.00;;;;5071239;28;21067;-81
2021/10/30 09:50:50;;;;;;;2.78;2.13;;;;;18.60;99887.00;;;;5071704;28;20286;-82
2021/10/30 09:53:30;;;;;;;2.53;1.90;;;;;18.50;99880.00;;;;5081464;28;20226;-82
2021/10/30 09:56:01;;;;;;;3.63;1.88;;;;;18.60;99880.00;;;;5087224;28;20213;-82
2021/10/30 09:58:40;;;;;;;2.50;2.00;;;;;18.50;99887.00;;;;5085715;28;20206;-83
2021/10/30 10:01:10;;;;;;;2.08;1.88;;;;;18.60;99890.00;;;;5084215;28;20686;-80
2021/10/30 10:03:39;;;;;;;5.10;2.38;;;;;18.60;99886.00;;;;5082562;28;20202;-81
2021/10/30 10:06:08;;;;;;;3.72;2.25;;;;;18.60;99881.00;;;;5092912;28;20612;-79
2021/10/30 10:08:38;;;;;;;6.10;2.22;;;;;18.60;99882.00;;;;5086915;28;20226;-79
2021/10/30 10:11:08;;;;;;;3.33;1.85;;;;;18.60;99875.00;;;;5081203;28;20226;-82
2021/10/30 10:13:38;;;;;;;3.72;2.20;;;;;18.60;99881.00;;;;5077597;28;20286;-81
2021/10/30 10:16:12;;;;;;;1.95;1.77;;;;;18.60;99878.00;;;;5091025;28;20207;-82
2021/10/30 10:18:40;;;;;;;3.92;2.20;;;;;18.70;99875.00;;;;5088504;28;20784;-83
2021/10/30 10:21:10;;;;;;;1.85;1.63;;;;;18.70;99877.00;;;;5070276;28;20257;-81
2021/10/30 10:23:42;;;;;;;2.30;1.98;;;;;18.70;99873.00;;;;5081382;28;20748;-81
2021/10/30 10:26:10;;;;;;;3.70;1.95;;;;;18.70;99879.00;;;;5074451;28;20219;-82
2021/10/30 10:28:38;;;;;;;2.47;1.98;;;;;18.70;99869.00;;;;5076258;28;20231;-81
2021/10/30 10:31:11;;;;;;;3.08;2.40;;;;;18.70;99857.00;;;;5082808;28;20195;-82
2021/10/30 10:33:40;;;;;;;2.35;2.08;;;;;18.70;99865.00;;;;5071146;28;20782;-81
2021/10/30 10:36:18;;;;;;;3.30;1.77;;;;;18.70;99866.00;;;;5071096;28;20203;-81
2021/10/30 10:39:24;;;;;;;4.05;2.35;;;;;18.60;99867.00;;;;5071419;28;20246;-81
2021/10/30 10:41:57;;;;;;;2.58;2.03;;;;;18.70;99859.00;;;;5074167;28;20197;-81
2021/10/30 10:45:01;;;;;;;2.50;2.13;;;;;18.60;99842.00;;;;5071255;28;20199;-82
2021/10/30 10:47:53;;;;;;;2.75;2.15;;;;;18.70;99857.00;;;;5070656;28;20281;-82
2021/10/30 10:50:24;;;;;;;3.30;2.10;;;;;18.80;99848.00;;;;5072060;28;20227;-80
2021/10/30 10:53:20;;;;;;;3.28;2.03;;;;;18.70;99851.00;;;;5084720;28;20721;-80
2021/10/30 10:56:21;;;;;;;2.83;1.88;;;;;18.60;99837.00;;;;5081156;28;20289;-83
2021/10/30 10:59:06;;;;;;;2.45;2.05;;;;;18.70;99837.00;;;;5067105;28;20613;-83
2021/10/30 11:01:38;;;;;;;2.40;1.95;;;;;18.80;99833.00;;;;5073475;28;20198;-82
2021/10/30 11:04:13;;;;;;;1.98;1.75;;;;;18.80;99833.00;;;;5069152;28;20664;-81
2021/10/30 11:06:45;;;;;;;2.30;1.55;;;;;18.90;99823.00;;;;5083019;28;20198;-82
2021/10/30 11:09:15;;;;;;;2.00;1.77;;;;;18.90;99812.00;;;;5089417;28;20329;-81
2021/10/30 11:11:43;;;;;;;2.13;1.67;;;;;18.90;99822.00;;;;5078494;28;20202;-81
2021/10/30 11:14:13;;;;;;;2.33;1.83;;;;;18.90;99808.00;;;;5089008;28;20194;-81
2021/10/30 11:16:45;;;;;;;2.10;1.88;;;;;18.90;99803.00;;;;5086871;28;20213;-81
2021/10/30 11:19:28;;;;;;;3.15;2.08;;;;;18.90;99799.00;;;;5070959;28;20203;-81
2021/10/30 11:22:06;;;;;;;2.20;1.55;;;;;19.00;99801.00;;;;5080823;28;20210;-81
2021/10/30 11:24:33;;;;;;;2.08;1.67;;;;;19.10;99793.00;;;;5069492;28;20210;-83
2021/10/30 11:27:07;;;;;;;3.35;2.38;;;;;19.10;99789.00;;;;5065741;28;20639;-81
2021/10/30 11:29:48;;;;;;;2.38;1.73;;;;;19.00;99788.00;;;;5075770;28;20222;-81
2021/10/30 11:32:18;;;;;;;1.98;1.70;;;;;19.10;99787.00;;;;5081633;28;20292;-81
2021/10/30 11:34:57;;;;;;;2.47;1.70;;;;;19.10;99788.00;;;;5076352;28;20199;-82
2021/10/30 11:37:25;;;;;;;1.58;1.20;;;;;19.20;99793.00;;;;5073138;28;20195;-81
2021/10/30 11:39:52;;;;;;;2.63;2.13;;;;;19.20;99790.00;;;;5077353;28;20202;-81
2021/10/30 11:42:20;;;;;;;1.92;1.73;;;;;19.30;99792.00;;;;5079497;28;20198;-82
2021/10/30 11:44:54;;;;;;;2.10;1.73;;;;;19.30;99799.00;;;;5080870;28;20191;-81
2021/10/30 11:47:29;;;;;;;2.05;1.67;;;;;19.20;99798.00;;;;5075607;28;20277;-82
2021/10/30 11:49:59;;;;;;;2.25;1.75;;;;;19.30;99793.00;;;;5071579;28;20222;-82
2021/10/30 11:52:27;;;;;;;2.20;1.70;;;;;19.30;99788.00;;;;5073581;28;20191;-81
2021/10/30 11:54:59;;;;;;;4.00;1.80;;;;;19.30;99784.00;;;;5080106;28;20198;-80
2021/10/30 11:57:26;;;;;;;1.98;1.27;;;;;19.40;99778.00;;;;5078014;28;20552;-82
2021/10/30 12:00:00;;;;;;;4.47;1.77;;;;;19.30;99769.00;;;;5072312;28;20209;-82
2021/10/30 12:02:27;;;;;;;2.65;1.73;;;;;19.40;99773.00;;;;5077384;28;20197;-80
2021/10/30 12:04:57;;;;;;;2.05;1.70;;;;;19.40;99775.00;;;;5072749;28;20194;-81
2021/10/30 12:07:25;;;;;;;2.05;1.83;;;;;19.40;99771.00;;;;5074483;28;20253;-82
2021/10/30 12:09:59;;;;;;;2.53;1.73;;;;;19.40;99775.00;;;;5074666;28;20223;-81
2021/10/30 12:12:27;;;;;;;2.28;1.60;;;;;19.50;99769.00;;;;5089091;28;20197;-80
2021/10/30 12:14:56;;;;;;;1.90;1.52;;;;;19.50;99765.00;;;;5088560;28;20203;-79
2021/10/30 12:17:26;;;;;;;2.60;1.80;;;;;19.50;99769.00;;;;5089235;28;20194;-80
2021/10/30 12:19:56;;;;;;;1.70;1.60;;;;;19.50;99765.00;;;;5081491;28;20183;-79
2021/10/30 12:22:25;;;;;;;1.40;1.30;;;;;19.50;99762.00;;;;5077988;28;20207;-80